Time;durP1;ratioP1;P1;durP2;ratioP2;P2;SDS_P1;SDS_P2;PMS_P1;PMS_P2;Temp;Humidity;BMP_temperature;BMP_pressure;BME280_temperature;BME280_humidity;BME280_pressure;Samples;Min_cycle;Max_cycle;Signal;HPM_P1;HPM_P2
2022/01/23 00:01:40;;;;;;;7.07;4.43;;;4.50;99.90;;;;;;4170891;28;20499;-85
2022/01/23 00:03:46;;;;;;;7.90;3.87;;;4.50;99.90;;;;;;4173954;28;20588;-83
2022/01/23 00:05:49;;;;;;;7.87;4.13;;;4.40;99.90;;;;;;4173280;28;21252;-83
2022/01/23 00:07:52;;;;;;;7.70;4.13;;;4.40;99.90;;;;;;4171927;28;20456;-85
2022/01/23 00:09:54;;;;;;;6.50;3.70;;;4.40;99.90;;;;;;4173645;28;20462;-85
2022/01/23 00:12:03;;;;;;;6.97;3.90;;;4.40;99.90;;;;;;4174884;28;20973;-84
2022/01/23 00:18:45;;;;;;;8.80;4.73;;;4.40;99.90;;;;;;4173412;28;20901;-83
2022/01/23 00:20:47;;;;;;;7.47;4.50;;;4.60;99.90;;;;;;4169801;28;20454;-84
2022/01/23 00:22:51;;;;;;;8.70;4.00;;;4.40;99.90;;;;;;4170119;28;20818;-84
2022/01/23 00:31:52;;;;;;;8.40;4.33;;;4.20;99.90;;;;;;4173505;28;20452;-76
2022/01/23 00:33:54;;;;;;;8.67;4.57;;;4.30;99.90;;;;;;4174109;28;20491;-76
2022/01/23 00:35:58;;;;;;;9.50;5.13;;;4.30;99.90;;;;;;4174727;28;20575;-75
2022/01/23 00:38:01;;;;;;;9.43;4.53;;;4.20;99.90;;;;;;4175593;28;20452;-76
2022/01/23 00:40:04;;;;;;;10.97;5.67;;;4.20;99.90;;;;;;4171633;28;20538;-78
2022/01/23 00:42:06;;;;;;;8.00;4.70;;;4.20;99.90;;;;;;4174273;28;20859;-77
2022/01/23 00:44:09;;;;;;;8.03;4.80;;;4.20;99.90;;;;;;4174600;28;20991;-77
2022/01/23 00:46:22;;;;;;;7.47;4.27;;;4.20;99.90;;;;;;4173999;28;20516;-77
2022/01/23 00:48:28;;;;;;;9.33;4.73;;;4.20;99.90;;;;;;4172095;28;20555;-77
2022/01/23 00:50:32;;;;;;;8.77;4.67;;;4.20;99.90;;;;;;4174519;28;20464;-76
2022/01/23 00:52:34;;;;;;;9.33;5.27;;;4.20;99.90;;;;;;4174340;28;20444;-76
2022/01/23 00:54:36;;;;;;;7.90;4.63;;;4.30;99.90;;;;;;4172557;28;20485;-75
2022/01/23 00:56:38;;;;;;;8.63;4.70;;;4.20;99.90;;;;;;4172178;28;20523;-77
2022/01/23 00:58:40;;;;;;;7.50;4.37;;;4.20;99.90;;;;;;4172546;28;20477;-77
2022/01/23 01:00:44;;;;;;;8.93;4.50;;;4.20;99.90;;;;;;4173346;28;20465;-77
2022/01/23 01:02:45;;;;;;;8.23;4.40;;;4.20;99.90;;;;;;4173428;28;20457;-77
2022/01/23 01:04:47;;;;;;;8.93;4.80;;;4.20;99.90;;;;;;4172683;28;20485;-77
2022/01/23 01:06:49;;;;;;;7.77;4.40;;;4.20;99.90;;;;;;4177607;28;20453;-77
2022/01/23 01:08:54;;;;;;;6.47;4.13;;;4.30;99.90;;;;;;4176857;28;20961;-77
2022/01/23 01:11:10;;;;;;;8.77;4.50;;;4.30;99.90;;;;;;4175199;28;20467;-78
2022/01/23 01:13:14;;;;;;;8.60;4.23;;;4.20;99.90;;;;;;4177674;28;20537;-78
2022/01/23 01:30:07;;;;;;;9.77;4.23;;;4.20;99.90;;;;;;4173611;28;20444;-77
2022/01/23 01:31:37;;;;;;;9.07;4.50;;;4.20;99.90;;;;;;4180851;28;20468;-78
2022/01/23 01:33:47;;;;;;;11.27;4.70;;;4.20;99.90;;;;;;4179729;28;20504;-78
2022/01/23 01:35:55;;;;;;;8.87;5.10;;;4.20;99.90;;;;;;4177441;28;20531;-78
2022/01/23 01:37:57;;;;;;;7.53;4.53;;;4.20;99.90;;;;;;4170643;28;20465;-78
2022/01/23 01:39:59;;;;;;;11.20;5.00;;;4.10;99.90;;;;;;4177676;28;20799;-78
2022/01/23 01:42:01;;;;;;;10.67;5.07;;;4.20;99.90;;;;;;4179812;28;20525;-78
2022/01/23 01:44:03;;;;;;;10.43;5.00;;;4.20;99.90;;;;;;4176224;28;20477;-78
2022/01/23 01:46:05;;;;;;;8.60;5.03;;;4.20;99.90;;;;;;4178583;28;21083;-78
2022/01/23 01:48:06;;;;;;;10.27;4.90;;;4.20;99.90;;;;;;4167401;28;20480;-78
2022/01/23 01:50:10;;;;;;;9.33;5.70;;;4.20;99.90;;;;;;4180398;28;20465;-78
2022/01/23 01:52:11;;;;;;;9.33;5.53;;;4.20;99.90;;;;;;4180799;28;20515;-78
2022/01/23 01:54:16;;;;;;;8.57;4.70;;;4.20;99.90;;;;;;4180710;28;20489;-78
2022/01/23 01:56:19;;;;;;;9.07;5.07;;;4.20;99.90;;;;;;4186769;28;20819;-78
2022/01/23 02:00:44;;;;;;;10.17;5.53;;;4.20;99.90;;;;;;4159636;28;20512;-78
2022/01/23 02:09:44;;;;;;;8.43;5.00;;;4.20;99.90;;;;;;4181560;28;20547;-78
2022/01/23 02:12:10;;;;;;;11.77;5.47;;;4.10;99.90;;;;;;4183939;28;20464;-79
2022/01/23 02:14:25;;;;;;;9.73;5.50;;;4.10;99.90;;;;;;4185363;28;20493;-79
2022/01/23 02:51:57;;;;;;;12.90;6.53;;;4.20;99.90;;;;;;4136990;28;20441;-78
2022/01/23 02:54:20;;;;;;;12.33;6.50;;;4.20;99.90;;;;;;4186591;28;20470;-78
2022/01/23 02:56:33;;;;;;;14.47;8.27;;;4.10;99.90;;;;;;4180508;28;20490;-78
2022/01/23 02:58:47;;;;;;;13.80;7.67;;;4.20;99.90;;;;;;4166661;28;20438;-78
2022/01/23 03:01:00;;;;;;;16.47;7.70;;;4.20;99.90;;;;;;4179598;28;20484;-78
2022/01/23 03:03:08;;;;;;;13.00;7.07;;;4.20;99.90;;;;;;4173669;28;20542;-78
2022/01/23 03:05:23;;;;;;;14.20;7.53;;;4.20;99.90;;;;;;4178111;28;20559;-78
2022/01/23 03:09:56;;;;;;;18.70;8.00;;;4.20;99.90;;;;;;4154370;28;20464;-78
2022/01/23 03:12:11;;;;;;;17.87;8.07;;;4.20;99.90;;;;;;4182388;28;20452;-78
2022/01/23 03:14:18;;;;;;;16.50;8.43;;;4.20;99.90;;;;;;4181025;28;20523;-78
2022/01/23 03:28:20;;;;;;;14.20;7.63;;;4.20;99.90;;;;;;4152633;28;20542;-78
2022/01/23 03:30:25;;;;;;;15.63;8.17;;;4.20;99.90;;;;;;4167048;28;20520;-77
2022/01/23 03:32:34;;;;;;;14.30;7.70;;;4.20;99.90;;;;;;4165902;28;20493;-78
2022/01/23 03:34:36;;;;;;;16.20;8.27;;;4.20;99.90;;;;;;4188607;28;20498;-78
2022/01/23 03:36:38;;;;;;;14.87;7.27;;;4.20;99.90;;;;;;4199107;28;20451;-77
2022/01/23 03:38:40;;;;;;;14.83;7.03;;;4.10;99.90;;;;;;4194686;28;20461;-77
2022/01/23 03:40:43;;;;;;;12.83;6.80;;;4.10;99.90;;;;;;4174568;28;20453;-77
2022/01/23 03:42:48;;;;;;;16.13;7.80;;;4.20;99.90;;;;;;4181882;28;20430;-78
2022/01/23 03:45:06;;;;;;;17.93;8.23;;;4.20;99.90;;;;;;4191092;28;21052;-78
2022/01/23 03:47:21;;;;;;;15.80;7.70;;;4.10;99.90;;;;;;4185194;28;20504;-78
2022/01/23 03:49:31;;;;;;;15.83;7.50;;;4.10;99.90;;;;;;4165541;28;20491;-79
2022/01/23 03:51:33;;;;;;;18.53;8.57;;;4.20;99.90;;;;;;4164774;28;20817;-78
2022/01/23 03:53:35;;;;;;;16.03;7.43;;;4.10;99.90;;;;;;4173839;28;20473;-78
2022/01/23 03:55:36;;;;;;;21.07;9.10;;;4.10;99.90;;;;;;4191847;28;20453;-77
2022/01/23 03:57:39;;;;;;;16.97;8.97;;;4.10;99.90;;;;;;4177138;28;21036;-79
2022/01/23 03:59:42;;;;;;;16.07;7.53;;;4.10;99.90;;;;;;4181430;28;20467;-78
2022/01/23 04:01:43;;;;;;;15.97;7.23;;;4.10;99.90;;;;;;4180788;28;20521;-77
2022/01/23 04:03:45;;;;;;;18.97;8.60;;;4.10;99.90;;;;;;4180516;28;20481;-79
2022/01/23 04:05:47;;;;;;;17.33;8.23;;;4.10;99.90;;;;;;4180167;28;20464;-78
2022/01/23 04:07:49;;;;;;;16.87;8.53;;;4.10;99.90;;;;;;4173312;28;20449;-78
2022/01/23 04:09:52;;;;;;;17.43;8.47;;;4.10;99.90;;;;;;4180673;28;20476;-79
2022/01/23 04:11:54;;;;;;;19.90;7.87;;;4.10;99.90;;;;;;4181305;28;20469;-79
2022/01/23 04:14:02;;;;;;;20.07;8.93;;;4.10;99.90;;;;;;4177500;28;20492;-79
2022/01/23 04:16:15;;;;;;;18.77;7.97;;;5.00;99.90;;;;;;4188870;28;21077;-79
2022/01/23 04:20:43;;;;;;;18.47;8.63;;;4.10;99.90;;;;;;4184380;28;20814;-78
2022/01/23 04:32:36;;;;;;;17.73;8.47;;;4.00;99.90;;;;;;4180264;28;21018;-77
2022/01/23 04:34:52;;;;;;;17.33;8.17;;;4.00;99.90;;;;;;4180931;28;20531;-77
2022/01/23 04:47:10;;;;;;;15.80;7.70;;;4.00;99.90;;;;;;4182987;28;20830;-79
2022/01/23 05:00:50;;;;;;;17.87;8.07;;;3.90;99.90;;;;;;4181159;28;20432;-78
2022/01/23 05:03:40;;;;;;;19.23;8.53;;;3.90;99.90;;;;;;4177800;28;20949;-78
2022/01/23 05:05:32;;;;;;;15.83;7.90;;;3.90;99.90;;;;;;4173824;28;20453;-78
2022/01/23 05:07:34;;;;;;;16.37;8.20;;;3.90;99.90;;;;;;4187395;28;20563;-78
2022/01/23 05:09:36;;;;;;;17.10;8.73;;;3.90;99.90;;;;;;4189982;28;20465;-78
2022/01/23 05:11:46;;;;;;;18.73;9.00;;;3.90;99.90;;;;;;4179590;28;20889;-77
2022/01/23 05:13:48;;;;;;;16.90;7.70;;;3.90;99.90;;;;;;4171205;28;21046;-79
2022/01/23 05:15:50;;;;;;;18.27;8.10;;;3.90;99.90;;;;;;4179573;28;21033;-78
2022/01/23 05:17:54;;;;;;;17.73;8.10;;;3.90;99.90;;;;;;4187429;28;20457;-79
2022/01/23 05:19:55;;;;;;;17.97;8.37;;;3.90;99.90;;;;;;4180370;28;20452;-79
2022/01/23 05:22:19;;;;;;;17.97;8.83;;;3.90;99.90;;;;;;4175934;28;20984;-79
2022/01/23 05:24:25;;;;;;;16.07;7.83;;;3.90;99.90;;;;;;4190020;28;20531;-78
2022/01/23 05:26:27;;;;;;;17.27;8.30;;;3.90;99.90;;;;;;4179303;28;20484;-78
2022/01/23 05:28:29;;;;;;;17.50;8.83;;;3.90;99.90;;;;;;4183052;28;20813;-81
2022/01/23 05:30:31;;;;;;;17.10;7.50;;;3.80;99.90;;;;;;4163562;28;20461;-79
2022/01/23 05:32:36;;;;;;;15.50;8.07;;;3.80;99.90;;;;;;4175255;28;20563;-78
2022/01/23 05:34:39;;;;;;;15.50;8.27;;;3.80;99.90;;;;;;4180440;28;20575;-78
2022/01/23 05:36:41;;;;;;;17.77;7.97;;;3.80;99.90;;;;;;4181842;28;20449;-78
2022/01/23 05:38:43;;;;;;;15.00;7.63;;;3.80;99.90;;;;;;4188627;28;20996;-78
2022/01/23 05:40:44;;;;;;;15.03;7.47;;;3.90;99.90;;;;;;4181310;28;21008;-78
2022/01/23 05:42:46;;;;;;;17.27;8.03;;;3.80;99.90;;;;;;4179268;28;20469;-78
2022/01/23 05:44:48;;;;;;;13.37;6.97;;;3.80;99.90;;;;;;4180096;28;20842;-78
2022/01/23 05:46:53;;;;;;;15.10;7.47;;;3.80;99.90;;;;;;4174338;28;20588;-77
2022/01/23 05:49:01;;;;;;;14.70;7.27;;;3.80;99.90;;;;;;4182016;28;20468;-78
2022/01/23 05:51:05;;;;;;;14.67;7.30;;;3.80;99.90;;;;;;4179902;28;20981;-77
2022/01/23 05:53:06;;;;;;;14.27;7.07;;;3.80;99.90;;;;;;4178745;28;20496;-78
2022/01/23 05:55:09;;;;;;;16.40;7.90;;;3.80;99.90;;;;;;4179488;28;20472;-78
2022/01/23 05:57:11;;;;;;;13.10;6.73;;;3.80;99.90;;;;;;4173836;28;20457;-78
2022/01/23 05:59:12;;;;;;;16.17;7.30;;;4.00;99.90;;;;;;4179966;28;20457;-77
2022/01/23 06:01:14;;;;;;;14.47;7.37;;;3.80;99.90;;;;;;4179359;28;20469;-78
2022/01/23 06:03:16;;;;;;;17.37;7.97;;;3.80;99.90;;;;;;4171493;28;20457;-77
2022/01/23 06:05:18;;;;;;;13.93;6.77;;;3.80;99.90;;;;;;4171206;28;20508;-79
2022/01/23 06:07:21;;;;;;;14.10;6.47;;;3.80;99.90;;;;;;4179865;28;20477;-78
2022/01/23 06:09:23;;;;;;;13.77;6.73;;;3.80;99.90;;;;;;4182306;28;20468;-77
2022/01/23 06:11:24;;;;;;;12.83;6.47;;;3.80;99.90;;;;;;4177766;28;20560;-78
2022/01/23 06:13:28;;;;;;;13.87;6.80;;;3.80;99.90;;;;;;4178435;28;20481;-78
2022/01/23 06:15:29;;;;;;;12.20;6.50;;;3.80;99.90;;;;;;4184027;28;20437;-78
2022/01/23 06:17:31;;;;;;;14.00;6.53;;;3.80;99.90;;;;;;4183469;28;20448;-78
2022/01/23 06:19:38;;;;;;;15.40;7.00;;;3.80;99.90;;;;;;4183369;28;20804;-77
2022/01/23 06:21:40;;;;;;;15.23;7.10;;;3.80;99.90;;;;;;4176685;28;20477;-78
2022/01/23 06:23:43;;;;;;;15.17;7.47;;;3.80;99.90;;;;;;4182436;22;20488;-78
2022/01/23 06:25:47;;;;;;;14.07;6.20;;;3.80;99.90;;;;;;4174246;28;20473;-81
2022/01/23 06:27:49;;;;;;;16.57;7.20;;;3.70;99.90;;;;;;4182388;28;20878;-81
2022/01/23 06:29:51;;;;;;;12.77;6.33;;;3.80;99.90;;;;;;4169764;28;20915;-77
2022/01/23 06:31:55;;;;;;;12.87;6.70;;;3.80;99.90;;;;;;4185214;28;20871;-81
2022/01/23 06:33:58;;;;;;;15.40;7.47;;;3.80;99.90;;;;;;4185965;28;20484;-81
2022/01/23 06:35:59;;;;;;;13.53;6.30;;;3.80;99.90;;;;;;4169844;28;20465;-80
2022/01/23 06:38:01;;;;;;;13.20;6.67;;;3.80;99.90;;;;;;4163038;28;21037;-80
2022/01/23 06:40:06;;;;;;;13.40;7.57;;;3.90;99.90;;;;;;4157848;28;20532;-81
2022/01/23 06:42:09;;;;;;;15.70;6.93;;;3.80;99.90;;;;;;4168653;28;20442;-80
2022/01/23 06:44:11;;;;;;;13.53;6.77;;;3.80;99.90;;;;;;4169462;28;20478;-79
2022/01/23 06:46:13;;;;;;;15.43;7.30;;;3.80;99.90;;;;;;4164850;28;20509;-81
2022/01/23 06:48:14;;;;;;;13.87;7.00;;;3.80;99.90;;;;;;4168555;28;20996;-81
2022/01/23 06:50:16;;;;;;;15.17;7.50;;;3.80;99.90;;;;;;4173169;28;20473;-81
2022/01/23 06:52:18;;;;;;;13.47;6.27;;;3.70;99.90;;;;;;4168816;28;20458;-80
2022/01/23 06:54:20;;;;;;;13.40;6.73;;;3.70;99.90;;;;;;4165146;28;20875;-81
2022/01/23 06:56:23;;;;;;;15.60;7.43;;;3.70;99.90;;;;;;4163298;28;20531;-80
2022/01/23 06:58:25;;;;;;;14.70;6.90;;;3.70;99.90;;;;;;4171671;28;20564;-81
2022/01/23 07:00:27;;;;;;;14.07;7.37;;;3.70;99.90;;;;;;4168542;28;20519;-81
2022/01/23 07:02:29;;;;;;;15.47;7.63;;;3.70;99.90;;;;;;4167459;28;20834;-81
2022/01/23 07:04:31;;;;;;;16.10;7.50;;;3.70;99.90;;;;;;4160737;28;20473;-81
2022/01/23 07:06:33;;;;;;;14.20;7.77;;;3.70;99.90;;;;;;4161790;28;20889;-77
2022/01/23 07:08:35;;;;;;;16.83;7.03;;;3.90;99.90;;;;;;4168854;28;20829;-80
2022/01/23 07:10:36;;;;;;;14.87;7.17;;;3.80;99.90;;;;;;4168026;28;20454;-80
2022/01/23 07:12:40;;;;;;;16.63;7.63;;;3.70;99.90;;;;;;4158876;28;20473;-81
2022/01/23 07:14:41;;;;;;;18.37;7.23;;;3.70;99.90;;;;;;4152700;28;20461;-81
2022/01/23 07:16:46;;;;;;;16.13;7.60;;;3.70;99.90;;;;;;4165770;28;20473;-80
2022/01/23 07:18:48;;;;;;;14.57;7.40;;;3.70;99.90;;;;;;4170442;28;20454;-80
2022/01/23 07:20:50;;;;;;;16.37;7.10;;;3.60;99.90;;;;;;4169140;28;20958;-80
2022/01/23 07:22:51;;;;;;;16.90;7.30;;;3.70;99.90;;;;;;4171079;28;20935;-80
2022/01/23 07:24:55;;;;;;;13.80;6.27;;;3.70;99.90;;;;;;4168119;28;20853;-79
2022/01/23 07:26:59;;;;;;;16.83;7.30;;;3.70;99.90;;;;;;4154085;28;21018;-81
2022/01/23 07:29:03;;;;;;;17.70;7.60;;;3.70;99.90;;;;;;4154862;28;20453;-80
2022/01/23 07:31:07;;;;;;;15.30;7.23;;;3.70;99.90;;;;;;4156440;28;20470;-81
2022/01/23 07:33:09;;;;;;;14.47;6.60;;;3.70;99.90;;;;;;4168431;28;20560;-81
2022/01/23 07:35:11;;;;;;;15.93;7.40;;;3.80;99.90;;;;;;4165531;28;20505;-81
2022/01/23 07:37:14;;;;;;;14.97;7.00;;;3.70;99.90;;;;;;4169758;28;20951;-80
2022/01/23 07:39:16;;;;;;;17.73;8.27;;;3.70;99.90;;;;;;4179544;28;20928;-78
2022/01/23 07:41:17;;;;;;;15.77;7.13;;;3.70;99.90;;;;;;4186313;28;20464;-80
2022/01/23 07:43:19;;;;;;;16.17;7.23;;;3.70;99.90;;;;;;4172865;28;20462;-80
2022/01/23 07:45:25;;;;;;;19.37;7.80;;;3.70;99.90;;;;;;4165030;28;20478;-78
2022/01/23 07:47:27;;;;;;;12.73;6.03;;;3.70;99.90;;;;;;4164165;28;20486;-78
2022/01/23 07:49:29;;;;;;;16.00;7.20;;;3.70;99.90;;;;;;4158548;28;20496;-77
2022/01/23 07:51:31;;;;;;;16.43;7.40;;;3.80;99.90;;;;;;4167585;28;20456;-81
2022/01/23 07:53:33;;;;;;;15.00;6.73;;;3.80;99.90;;;;;;4171019;28;20453;-80
2022/01/23 07:55:35;;;;;;;17.10;7.50;;;3.80;99.90;;;;;;4172157;28;20458;-79
2022/01/23 07:57:37;;;;;;;14.20;6.60;;;3.80;99.90;;;;;;4170718;28;20450;-80
2022/01/23 07:59:39;;;;;;;15.27;7.10;;;3.80;99.90;;;;;;4157572;28;20512;-80
2022/01/23 08:01:42;;;;;;;15.10;7.10;;;3.80;99.90;;;;;;4172759;28;20458;-80
2022/01/23 08:03:44;;;;;;;14.70;6.23;;;3.80;99.90;;;;;;4182500;28;20450;-80
2022/01/23 08:05:45;;;;;;;12.70;6.53;;;3.80;99.90;;;;;;4172915;28;20493;-81
2022/01/23 08:07:47;;;;;;;17.13;7.47;;;3.70;99.90;;;;;;4169096;28;20498;-80
2022/01/23 08:09:49;;;;;;;13.43;6.83;;;3.80;99.90;;;;;;4153533;28;20505;-81
2022/01/23 08:11:50;;;;;;;14.60;7.50;;;3.80;99.90;;;;;;4161348;28;20478;-79
2022/01/23 08:13:52;;;;;;;15.23;6.90;;;3.90;99.90;;;;;;4168601;28;20732;-81
2022/01/23 08:15:54;;;;;;;15.87;7.07;;;3.90;99.90;;;;;;4158706;28;20892;-78
2022/01/23 08:18:01;;;;;;;16.80;6.80;;;3.90;99.90;;;;;;4165768;28;20484;-81
2022/01/23 08:20:06;;;;;;;15.70;6.63;;;3.90;99.90;;;;;;4182371;28;20457;-81
2022/01/23 08:22:07;;;;;;;17.17;7.20;;;3.90;99.90;;;;;;4174205;28;20462;-81
2022/01/23 08:24:11;;;;;;;13.30;6.40;;;3.90;99.90;;;;;;4159519;28;21002;-81
2022/01/23 08:26:13;;;;;;;12.87;6.37;;;3.90;99.90;;;;;;4166324;28;20458;-81
2022/01/23 08:28:14;;;;;;;10.23;5.77;;;4.00;99.90;;;;;;4166682;28;20493;-81
2022/01/23 08:30:16;;;;;;;11.57;5.57;;;4.00;99.90;;;;;;4170474;28;20508;-81
2022/01/23 08:32:18;;;;;;;11.87;5.63;;;4.00;99.90;;;;;;4162492;28;20466;-81
2022/01/23 08:34:21;;;;;;;11.23;5.80;;;4.00;99.90;;;;;;4167262;28;20474;-81
2022/01/23 08:36:23;;;;;;;11.87;5.53;;;4.00;99.90;;;;;;4173632;28;20561;-81
2022/01/23 08:38:25;;;;;;;11.40;5.17;;;4.00;99.90;;;;;;4167932;28;20931;-80
2022/01/23 08:40:47;;;;;;;12.53;5.43;;;4.00;99.90;;;;;;4174590;28;20767;-80
2022/01/23 08:42:51;;;;;;;10.97;5.13;;;4.00;99.90;;;;;;4166312;28;20469;-81
2022/01/23 08:44:54;;;;;;;9.83;5.00;;;4.10;99.90;;;;;;4163402;28;20580;-82
2022/01/23 08:46:57;;;;;;;10.07;4.90;;;4.00;99.90;;;;;;4160358;28;20461;-81
2022/01/23 08:49:00;;;;;;;12.20;5.63;;;4.10;99.90;;;;;;4163305;28;20836;-79
2022/01/23 08:51:03;;;;;;;10.90;5.13;;;4.10;99.90;;;;;;4166583;28;20865;-79
2022/01/23 08:53:05;;;;;;;11.70;4.93;;;4.20;99.90;;;;;;4169907;28;20516;-79
2022/01/23 08:55:07;;;;;;;10.50;5.37;;;4.10;99.90;;;;;;4169453;28;20477;-81
2022/01/23 08:57:09;;;;;;;11.13;4.67;;;4.10;99.90;;;;;;4167187;28;20473;-82
2022/01/23 08:59:11;;;;;;;11.13;4.73;;;4.10;99.90;;;;;;4176372;28;20802;-81
2022/01/23 09:01:13;;;;;;;9.00;5.20;;;4.10;99.90;;;;;;4170648;28;20453;-82
2022/01/23 09:03:15;;;;;;;8.63;4.53;;;3.80;99.90;;;;;;4160090;28;20470;-81
2022/01/23 09:05:18;;;;;;;9.03;4.47;;;4.10;99.90;;;;;;4164334;28;20493;-80
2022/01/23 09:07:22;;;;;;;12.23;5.07;;;4.10;99.90;;;;;;4160591;28;20887;-80
2022/01/23 09:09:29;;;;;;;9.10;4.60;;;4.10;99.90;;;;;;4165501;28;20457;-81
2022/01/23 09:11:40;;;;;;;7.80;4.30;;;4.20;99.90;;;;;;4163211;28;20479;-80
2022/01/23 09:13:54;;;;;;;9.97;4.80;;;4.10;99.90;;;;;;4169816;28;20461;-81
2022/01/23 09:15:55;;;;;;;10.00;4.70;;;4.20;99.90;;;;;;4167053;28;20462;-80
2022/01/23 09:17:57;;;;;;;10.53;4.57;;;4.20;99.90;;;;;;4165437;28;20463;-80
2022/01/23 09:19:59;;;;;;;10.67;4.63;;;4.20;99.90;;;;;;4166616;28;20457;-80
2022/01/23 09:22:04;;;;;;;9.37;4.53;;;4.20;99.90;;;;;;4157700;28;20520;-81
2022/01/23 09:24:07;;;;;;;9.17;4.17;;;4.20;99.90;;;;;;4157038;28;20506;-80
2022/01/23 09:26:14;;;;;;;8.27;4.53;;;4.20;99.90;;;;;;4161139;28;20458;-81
2022/01/23 09:28:17;;;;;;;9.27;4.40;;;4.20;99.90;;;;;;4157131;28;20524;-80
2022/01/23 09:30:22;;;;;;;8.47;4.40;;;4.20;99.90;;;;;;4158191;28;20465;-78
2022/01/23 09:32:25;;;;;;;8.37;4.63;;;4.30;99.90;;;;;;4160087;28;20463;-80
2022/01/23 09:34:31;;;;;;;11.93;4.77;;;4.30;99.90;;;;;;4158772;28;20995;-81
2022/01/23 09:36:32;;;;;;;9.37;5.03;;;4.30;99.90;;;;;;4163248;28;20463;-79
2022/01/23 09:38:34;;;;;;;12.00;4.73;;;4.30;99.90;;;;;;4160230;28;20934;-80
2022/01/23 09:40:40;;;;;;;8.10;4.27;;;4.30;99.90;;;;;;4162553;28;20474;-80
2022/01/23 09:42:44;;;;;;;8.00;4.10;;;4.30;99.90;;;;;;4157234;28;20450;-80
2022/01/23 09:44:48;;;;;;;10.87;5.10;;;4.40;99.90;;;;;;4161153;28;20925;-80
2022/01/23 09:46:50;;;;;;;8.97;4.70;;;4.40;99.90;;;;;;4160023;28;20477;-80
2022/01/23 09:48:53;;;;;;;8.13;4.27;;;4.40;99.90;;;;;;4162023;28;20482;-79
2022/01/23 09:50:55;;;;;;;8.47;4.80;;;4.40;99.90;;;;;;4163778;28;20817;-80
2022/01/23 09:52:58;;;;;;;8.10;4.33;;;4.50;99.90;;;;;;4163728;28;21006;-80
2022/01/23 09:55:06;;;;;;;10.90;4.60;;;4.50;99.90;;;;;;4158494;28;20480;-80
2022/01/23 09:57:11;;;;;;;7.33;4.50;;;4.50;99.90;;;;;;4163356;28;20453;-80
2022/01/23 09:59:14;;;;;;;8.17;4.40;;;4.50;99.90;;;;;;4162352;28;20508;-80
2022/01/23 10:01:16;;;;;;;6.57;4.03;;;4.60;99.90;;;;;;4165735;28;20526;-80
2022/01/23 10:03:21;;;;;;;7.13;4.07;;;4.50;99.90;;;;;;4166999;28;20472;-79
2022/01/23 10:05:22;;;;;;;7.37;4.07;;;4.60;99.90;;;;;;4159692;28;20517;-80
2022/01/23 10:07:24;;;;;;;7.80;3.80;;;4.60;99.90;;;;;;4161653;28;20513;-80
2022/01/23 10:09:28;;;;;;;7.67;4.33;;;4.70;99.90;;;;;;4159650;28;21017;-79
2022/01/23 10:11:35;;;;;;;7.37;4.27;;;4.60;99.90;;;;;;4163299;28;20532;-80
2022/01/23 10:13:41;;;;;;;7.17;4.10;;;4.60;99.90;;;;;;4158414;28;20540;-79
2022/01/23 10:15:43;;;;;;;7.13;3.87;;;4.70;99.90;;;;;;4163362;28;20516;-80
2022/01/23 10:17:45;;;;;;;8.93;4.77;;;4.70;99.90;;;;;;4153858;28;20454;-80
2022/01/23 10:19:47;;;;;;;8.40;4.37;;;4.70;99.90;;;;;;4161693;28;20457;-80
2022/01/23 10:21:49;;;;;;;8.00;4.03;;;4.70;99.90;;;;;;4162935;28;20469;-81
2022/01/23 10:23:53;;;;;;;6.47;3.90;;;4.70;99.90;;;;;;4159424;28;20569;-80
2022/01/23 10:25:55;;;;;;;7.33;4.33;;;4.80;99.90;;;;;;4155805;28;20466;-79
2022/01/23 10:28:03;;;;;;;8.83;4.50;;;4.80;99.90;;;;;;4160492;28;20464;-81
2022/01/23 10:30:18;;;;;;;6.73;4.00;;;4.90;99.90;;;;;;4165289;28;20580;-80
2022/01/23 10:32:21;;;;;;;8.00;4.47;;;4.90;99.90;;;;;;4162939;28;20454;-80
2022/01/23 10:34:44;;;;;;;6.93;4.00;;;4.90;99.90;;;;;;4159801;28;20477;-81
2022/01/23 10:36:49;;;;;;;6.90;4.10;;;4.90;99.90;;;;;;4160322;28;20519;-81
2022/01/23 10:38:55;;;;;;;6.80;4.00;;;5.10;99.90;;;;;;4162805;28;20868;-80
2022/01/23 10:41:07;;;;;;;8.07;4.07;;;4.90;99.90;;;;;;4160272;28;20454;-80
2022/01/23 10:48:00;;;;;;;8.13;3.10;;;4.90;99.90;;;;;;4160081;28;20537;-80
2022/01/23 10:50:04;;;;;;;6.53;3.63;;;5.00;99.90;;;;;;4161686;28;20556;-80
2022/01/23 10:52:26;;;;;;;7.17;3.83;;;4.90;99.90;;;;;;4164136;28;20468;-80
2022/01/23 10:54:28;;;;;;;6.47;3.27;;;4.80;99.90;;;;;;4156094;28;20474;-81
2022/01/23 10:56:31;;;;;;;8.93;4.13;;;4.90;99.90;;;;;;4148301;28;20498;-81
2022/01/23 10:58:33;;;;;;;5.73;3.50;;;4.90;99.90;;;;;;4159673;28;20822;-80
2022/01/23 11:00:37;;;;;;;7.10;4.13;;;4.90;99.90;;;;;;4161241;28;20442;-80
2022/01/23 11:02:41;;;;;;;6.83;3.90;;;4.90;99.90;;;;;;4164451;28;21145;-80
2022/01/23 11:05:01;;;;;;;6.27;3.63;;;4.90;99.90;;;;;;4161266;28;20846;-80
2022/01/23 11:07:07;;;;;;;6.13;3.87;;;4.90;99.90;;;;;;4162876;28;20500;-80
2022/01/23 11:09:09;;;;;;;6.10;3.70;;;5.00;99.90;;;;;;4170741;28;20493;-80
2022/01/23 11:11:11;;;;;;;5.83;3.60;;;5.10;99.90;;;;;;4161501;28;21035;-81
2022/01/23 11:17:59;;;;;;;10.07;4.47;;;5.20;99.90;;;;;;4165460;28;20529;-79
2022/01/23 11:20:01;;;;;;;6.03;3.70;;;5.20;99.90;;;;;;4152620;28;20479;-78
2022/01/23 11:22:04;;;;;;;5.67;3.87;;;5.20;99.90;;;;;;4148600;28;20834;-77
2022/01/23 11:24:06;;;;;;;5.77;3.70;;;5.10;99.90;;;;;;4149772;28;20489;-81
2022/01/23 11:26:10;;;;;;;7.27;3.77;;;5.20;99.90;;;;;;4164218;28;20508;-78
2022/01/23 11:28:13;;;;;;;6.77;3.87;;;5.20;99.90;;;;;;4165706;28;20448;-78
2022/01/23 11:30:17;;;;;;;5.13;3.57;;;5.20;99.90;;;;;;4160895;28;20517;-78
2022/01/23 11:32:21;;;;;;;4.70;3.30;;;5.20;99.90;;;;;;4169503;28;20544;-79
2022/01/23 11:34:27;;;;;;;5.47;3.60;;;5.20;99.90;;;;;;4167424;28;20482;-82
2022/01/23 11:36:29;;;;;;;6.17;3.90;;;5.20;99.90;;;;;;4165218;28;20466;-77
2022/01/23 11:38:32;;;;;;;6.23;3.97;;;5.20;99.90;;;;;;4158896;28;20476;-77
2022/01/23 11:40:42;;;;;;;6.37;3.63;;;5.10;99.90;;;;;;4171656;28;20457;-77
2022/01/23 11:54:37;;;;;;;6.20;3.50;;;5.20;99.90;;;;;;4155785;28;20959;-77
2022/01/23 11:56:42;;;;;;;6.20;3.60;;;5.30;99.90;;;;;;4159633;28;20995;-77
2022/01/23 11:58:44;;;;;;;6.97;4.60;;;5.40;99.90;;;;;;4161008;28;20458;-76
2022/01/23 12:00:46;;;;;;;8.43;4.07;;;5.30;99.90;;;;;;4156489;28;20541;-76
2022/01/23 12:03:09;;;;;;;8.43;4.60;;;5.40;99.90;;;;;;4162355;28;20450;-76
2022/01/23 12:05:34;;;;;;;7.00;4.10;;;5.30;99.90;;;;;;4161301;28;20851;-76
2022/01/23 12:07:36;;;;;;;8.30;4.87;;;5.30;99.90;;;;;;4153850;28;20464;-77
2022/01/23 12:09:39;;;;;;;7.90;4.70;;;5.30;99.90;;;;;;4160596;28;21029;-78
2022/01/23 12:11:46;;;;;;;9.00;5.03;;;5.30;99.90;;;;;;4166558;28;20484;-78
2022/01/23 12:16:20;;;;;;;8.70;5.00;;;5.30;99.90;;;;;;4165599;28;21001;-77
2022/01/23 12:16:24;;;;;;;8.87;5.17;;;5.30;99.90;;;;;;4165557;28;20558;-79
2022/01/23 12:18:31;;;;;;;8.77;4.83;;;5.30;99.90;;;;;;4159224;28;20490;-79
2022/01/23 12:20:36;;;;;;;7.83;4.90;;;5.50;99.90;;;;;;4165288;28;20520;-80
2022/01/23 12:22:42;;;;;;;6.27;4.53;;;5.40;99.90;;;;;;4167729;28;20446;-77
2022/01/23 12:25:31;;;;;;;7.83;5.13;;;5.40;99.90;;;;;;4208506;22;20948;-77
2022/01/23 12:27:33;;;;;;;6.63;4.60;;;5.40;99.90;;;;;;4159198;28;20967;-76
2022/01/23 12:29:40;;;;;;;9.37;5.10;;;5.40;99.90;;;;;;4164741;28;21072;-76
2022/01/23 12:31:46;;;;;;;7.30;4.67;;;5.40;99.90;;;;;;4170082;28;20513;-78
2022/01/23 12:33:49;;;;;;;6.10;4.30;;;5.40;99.90;;;;;;4157376;28;20477;-77
2022/01/23 12:35:55;;;;;;;7.43;4.23;;;5.40;99.90;;;;;;4147912;28;20463;-78
2022/01/23 12:38:06;;;;;;;6.90;4.50;;;5.40;99.90;;;;;;4142350;28;20912;-77
2022/01/23 12:40:26;;;;;;;6.53;4.17;;;5.50;99.90;;;;;;4148457;28;20527;-77
2022/01/23 12:43:04;;;;;;;7.80;4.10;;;5.40;99.90;;;;;;4149626;28;20470;-77
2022/01/23 12:45:44;;;;;;;6.70;4.37;;;5.40;99.90;;;;;;4139090;28;20492;-78
2022/01/23 12:47:46;;;;;;;8.70;4.33;;;5.40;99.90;;;;;;4143931;28;20467;-78
2022/01/23 12:49:51;;;;;;;9.37;4.73;;;5.50;99.90;;;;;;4154301;28;20494;-78
2022/01/23 12:52:13;;;;;;;8.37;4.93;;;5.50;99.90;;;;;;4141197;28;20471;-78
2022/01/23 12:54:24;;;;;;;7.20;4.43;;;5.40;99.90;;;;;;4148537;28;20483;-78
2022/01/23 12:56:28;;;;;;;6.63;4.60;;;5.40;99.90;;;;;;4135017;28;20535;-78
2022/01/23 12:58:32;;;;;;;8.17;4.73;;;5.40;99.90;;;;;;4148137;28;20463;-77
2022/01/23 13:00:34;;;;;;;7.57;4.57;;;5.40;99.90;;;;;;4146657;28;20844;-77
2022/01/23 13:02:42;;;;;;;8.27;4.80;;;5.40;99.90;;;;;;4147827;28;20471;-77
2022/01/23 13:04:46;;;;;;;9.60;4.97;;;5.40;99.90;;;;;;4140009;28;20855;-77
2022/01/23 13:06:52;;;;;;;7.70;5.03;;;5.40;99.90;;;;;;4150686;28;21021;-78
2022/01/23 13:09:22;;;;;;;8.17;4.90;;;5.50;99.90;;;;;;4147643;28;20533;-78
2022/01/23 13:11:51;;;;;;;7.60;4.87;;;5.50;99.90;;;;;;4140469;28;20459;-77
2022/01/23 13:13:59;;;;;;;9.20;4.97;;;5.40;99.90;;;;;;4152489;28;20463;-77
2022/01/23 13:16:19;;;;;;;8.80;5.03;;;5.50;99.90;;;;;;4146954;28;20491;-77